sensor_id;sensor_type;location;lat;lon;timestamp;P1;durP1;ratioP1;P2;durP2;ratioP2
58665;SDS011;44436;52.872;6.520;2022-10-16T00:01:16;7.95;;;2.40;;
58665;SDS011;44436;52.872;6.520;2022-10-16T00:03:43;9.43;;;2.35;;
58665;SDS011;44436;52.872;6.520;2022-10-16T00:06:10;9.55;;;2.22;;
58665;SDS011;44436;52.872;6.520;2022-10-16T00:08:37;11.88;;;2.70;;
58665;SDS011;44436;52.872;6.520;2022-10-16T00:11:08;11.10;;;2.40;;
58665;SDS011;44436;52.872;6.520;2022-10-16T00:13:39;5.97;;;2.10;;
58665;SDS011;44436;52.872;6.520;2022-10-16T00:16:06;7.20;;;2.47;;
58665;SDS011;44436;52.872;6.520;2022-10-16T00:18:33;6.82;;;2.00;;
58665;SDS011;44436;52.872;6.520;2022-10-16T00:21:06;4.90;;;1.80;;
58665;SDS011;44436;52.872;6.520;2022-10-16T00:23:37;9.38;;;2.65;;
58665;SDS011;44436;52.872;6.520;2022-10-16T00:26:05;6.38;;;2.25;;
58665;SDS011;44436;52.872;6.520;2022-10-16T00:28:33;5.28;;;1.85;;
58665;SDS011;44436;52.872;6.520;2022-10-16T00:31:02;10.05;;;2.58;;
58665;SDS011;44436;52.872;6.520;2022-10-16T00:33:32;8.73;;;2.20;;
58665;SDS011;44436;52.872;6.520;2022-10-16T00:35:59;4.03;;;1.67;;
58665;SDS011;44436;52.872;6.520;2022-10-16T00:38:25;8.57;;;1.83;;
58665;SDS011;44436;52.872;6.520;2022-10-16T00:40:51;9.02;;;2.20;;
58665;SDS011;44436;52.872;6.520;2022-10-16T00:46:29;6.13;;;2.03;;
58665;SDS011;44436;52.872;6.520;2022-10-16T00:51:33;7.80;;;2.03;;
58665;SDS011;44436;52.872;6.520;2022-10-16T00:54:02;8.35;;;2.10;;
58665;SDS011;44436;52.872;6.520;2022-10-16T00:56:29;5.97;;;1.42;;
58665;SDS011;44436;52.872;6.520;2022-10-16T00:58:54;7.13;;;1.80;;
58665;SDS011;44436;52.872;6.520;2022-10-16T01:01:20;8.77;;;2.10;;
58665;SDS011;44436;52.872;6.520;2022-10-16T01:03:46;9.98;;;3.33;;
58665;SDS011;44436;52.872;6.520;2022-10-16T01:08:53;9.93;;;2.10;;
58665;SDS011;44436;52.872;6.520;2022-10-16T01:11:38;6.85;;;2.28;;
58665;SDS011;44436;52.872;6.520;2022-10-16T01:14:19;7.95;;;2.75;;
58665;SDS011;44436;52.872;6.520;2022-10-16T01:17:01;9.43;;;2.72;;
58665;SDS011;44436;52.872;6.520;2022-10-16T01:22:14;7.85;;;2.28;;
58665;SDS011;44436;52.872;6.520;2022-10-16T01:24:40;10.82;;;2.47;;
58665;SDS011;44436;52.872;6.520;2022-10-16T01:27:26;7.25;;;2.15;;
58665;SDS011;44436;52.872;6.520;2022-10-16T01:30:07;9.18;;;2.05;;
58665;SDS011;44436;52.872;6.520;2022-10-16T01:32:42;9.60;;;2.25;;
58665;SDS011;44436;52.872;6.520;2022-10-16T01:35:36;8.10;;;2.60;;
58665;SDS011;44436;52.872;6.520;2022-10-16T01:38:18;9.02;;;2.65;;
58665;SDS011;44436;52.872;6.520;2022-10-16T01:40:51;5.03;;;2.03;;
58665;SDS011;44436;52.872;6.520;2022-10-16T01:43:25;7.00;;;2.03;;
58665;SDS011;44436;52.872;6.520;2022-10-16T01:45:56;9.77;;;2.20;;
58665;SDS011;44436;52.872;6.520;2022-10-16T01:48:23;6.63;;;1.98;;
58665;SDS011;44436;52.872;6.520;2022-10-16T01:51:06;8.02;;;1.90;;
58665;SDS011;44436;52.872;6.520;2022-10-16T01:53:35;3.95;;;1.98;;
58665;SDS011;44436;52.872;6.520;2022-10-16T01:56:02;5.50;;;1.75;;
58665;SDS011;44436;52.872;6.520;2022-10-16T01:58:32;8.23;;;2.00;;
58665;SDS011;44436;52.872;6.520;2022-10-16T02:01:02;6.15;;;1.63;;
58665;SDS011;44436;52.872;6.520;2022-10-16T02:03:29;7.40;;;1.75;;
58665;SDS011;44436;52.872;6.520;2022-10-16T02:05:56;4.93;;;1.95;;
58665;SDS011;44436;52.872;6.520;2022-10-16T02:08:24;6.57;;;2.20;;
58665;SDS011;44436;52.872;6.520;2022-10-16T02:10:54;6.13;;;1.60;;
58665;SDS011;44436;52.872;6.520;2022-10-16T02:13:35;4.07;;;1.70;;
58665;SDS011;44436;52.872;6.520;2022-10-16T02:16:06;8.43;;;2.05;;
58665;SDS011;44436;52.872;6.520;2022-10-16T02:18:34;4.10;;;2.13;;
58665;SDS011;44436;52.872;6.520;2022-10-16T02:24:03;5.03;;;1.92;;
58665;SDS011;44436;52.872;6.520;2022-10-16T02:27:10;6.20;;;2.50;;
58665;SDS011;44436;52.872;6.520;2022-10-16T02:29:39;4.90;;;2.13;;
58665;SDS011;44436;52.872;6.520;2022-10-16T02:32:10;8.30;;;2.03;;
58665;SDS011;44436;52.872;6.520;2022-10-16T02:34:40;5.55;;;2.28;;
58665;SDS011;44436;52.872;6.520;2022-10-16T02:37:06;5.03;;;2.00;;
58665;SDS011;44436;52.872;6.520;2022-10-16T02:39:33;5.43;;;2.47;;
58665;SDS011;44436;52.872;6.520;2022-10-16T02:41:59;6.65;;;2.10;;
58665;SDS011;44436;52.872;6.520;2022-10-16T02:44:25;7.93;;;2.42;;
58665;SDS011;44436;52.872;6.520;2022-10-16T02:46:50;5.65;;;2.10;;
58665;SDS011;44436;52.872;6.520;2022-10-16T02:49:16;7.55;;;2.45;;
58665;SDS011;44436;52.872;6.520;2022-10-16T02:51:42;6.65;;;2.40;;
58665;SDS011;44436;52.872;6.520;2022-10-16T02:54:08;7.43;;;2.55;;
58665;SDS011;44436;52.872;6.520;2022-10-16T02:56:34;7.05;;;2.55;;
58665;SDS011;44436;52.872;6.520;2022-10-16T02:58:59;6.47;;;2.20;;
58665;SDS011;44436;52.872;6.520;2022-10-16T03:01:25;4.95;;;2.13;;
58665;SDS011;44436;52.872;6.520;2022-10-16T03:03:51;5.28;;;2.08;;
58665;SDS011;44436;52.872;6.520;2022-10-16T03:06:16;6.80;;;2.47;;
58665;SDS011;44436;52.872;6.520;2022-10-16T03:08:42;6.07;;;2.22;;
58665;SDS011;44436;52.872;6.520;2022-10-16T03:11:08;7.72;;;2.42;;
58665;SDS011;44436;52.872;6.520;2022-10-16T03:13:33;5.70;;;2.28;;
58665;SDS011;44436;52.872;6.520;2022-10-16T03:15:59;6.05;;;2.22;;
58665;SDS011;44436;52.872;6.520;2022-10-16T03:18:25;6.78;;;2.20;;
58665;SDS011;44436;52.872;6.520;2022-10-16T03:20:51;6.40;;;2.20;;
58665;SDS011;44436;52.872;6.520;2022-10-16T03:23:16;5.65;;;1.80;;
58665;SDS011;44436;52.872;6.520;2022-10-16T03:25:42;4.93;;;2.28;;
58665;SDS011;44436;52.872;6.520;2022-10-16T03:28:07;6.47;;;2.17;;
58665;SDS011;44436;52.872;6.520;2022-10-16T03:30:33;6.82;;;1.88;;
58665;SDS011;44436;52.872;6.520;2022-10-16T03:32:59;6.13;;;2.15;;
58665;SDS011;44436;52.872;6.520;2022-10-16T03:35:24;6.70;;;1.90;;
58665;SDS011;44436;52.872;6.520;2022-10-16T03:37:50;4.65;;;2.42;;
58665;SDS011;44436;52.872;6.520;2022-10-16T03:40:16;5.28;;;2.10;;
58665;SDS011;44436;52.872;6.520;2022-10-16T03:42:42;7.10;;;2.03;;
58665;SDS011;44436;52.872;6.520;2022-10-16T03:45:09;7.53;;;2.35;;
58665;SDS011;44436;52.872;6.520;2022-10-16T03:47:35;7.82;;;2.63;;
58665;SDS011;44436;52.872;6.520;2022-10-16T03:50:01;6.93;;;2.30;;
58665;SDS011;44436;52.872;6.520;2022-10-16T03:52:28;5.38;;;2.10;;
58665;SDS011;44436;52.872;6.520;2022-10-16T03:54:53;4.97;;;2.10;;
58665;SDS011;44436;52.872;6.520;2022-10-16T03:57:19;4.95;;;2.15;;
58665;SDS011;44436;52.872;6.520;2022-10-16T03:59:45;5.05;;;2.63;;
58665;SDS011;44436;52.872;6.520;2022-10-16T04:02:11;4.10;;;2.33;;
58665;SDS011;44436;52.872;6.520;2022-10-16T04:04:37;5.88;;;2.33;;
58665;SDS011;44436;52.872;6.520;2022-10-16T04:07:03;5.75;;;2.33;;
58665;SDS011;44436;52.872;6.520;2022-10-16T04:09:28;4.30;;;2.20;;
58665;SDS011;44436;52.872;6.520;2022-10-16T04:11:54;5.57;;;2.22;;
58665;SDS011;44436;52.872;6.520;2022-10-16T04:14:20;5.00;;;2.25;;
58665;SDS011;44436;52.872;6.520;2022-10-16T04:16:46;5.22;;;2.28;;
58665;SDS011;44436;52.872;6.520;2022-10-16T04:19:11;7.15;;;2.53;;
58665;SDS011;44436;52.872;6.520;2022-10-16T04:21:37;6.57;;;2.72;;
58665;SDS011;44436;52.872;6.520;2022-10-16T04:24:03;7.00;;;2.53;;
58665;SDS011;44436;52.872;6.520;2022-10-16T04:26:28;9.98;;;3.08;;
58665;SDS011;44436;52.872;6.520;2022-10-16T04:28:55;7.15;;;2.63;;
58665;SDS011;44436;52.872;6.520;2022-10-16T04:31:21;4.15;;;2.67;;
58665;SDS011;44436;52.872;6.520;2022-10-16T04:33:47;6.35;;;2.95;;
58665;SDS011;44436;52.872;6.520;2022-10-16T04:36:13;12.52;;;3.05;;
58665;SDS011;44436;52.872;6.520;2022-10-16T04:38:38;7.50;;;3.00;;
58665;SDS011;44436;52.872;6.520;2022-10-16T04:41:05;8.15;;;2.78;;
58665;SDS011;44436;52.872;6.520;2022-10-16T04:43:32;6.75;;;3.13;;
58665;SDS011;44436;52.872;6.520;2022-10-16T04:45:59;5.25;;;2.95;;
58665;SDS011;44436;52.872;6.520;2022-10-16T04:48:25;7.20;;;2.88;;
58665;SDS011;44436;52.872;6.520;2022-10-16T04:50:50;5.25;;;2.90;;
58665;SDS011;44436;52.872;6.520;2022-10-16T04:53:16;5.32;;;3.38;;
58665;SDS011;44436;52.872;6.520;2022-10-16T04:55:42;6.25;;;3.40;;
58665;SDS011;44436;52.872;6.520;2022-10-16T04:58:08;6.03;;;2.92;;
58665;SDS011;44436;52.872;6.520;2022-10-16T05:00:35;4.80;;;3.10;;
58665;SDS011;44436;52.872;6.520;2022-10-16T05:03:01;6.70;;;2.95;;
58665;SDS011;44436;52.872;6.520;2022-10-16T05:05:31;7.88;;;2.85;;
58665;SDS011;44436;52.872;6.520;2022-10-16T05:07:56;8.55;;;3.30;;
58665;SDS011;44436;52.872;6.520;2022-10-16T05:10:22;6.22;;;2.97;;
58665;SDS011;44436;52.872;6.520;2022-10-16T05:12:48;7.97;;;3.50;;
58665;SDS011;44436;52.872;6.520;2022-10-16T05:15:14;5.70;;;3.30;;
58665;SDS011;44436;52.872;6.520;2022-10-16T05:17:39;5.70;;;3.20;;
58665;SDS011;44436;52.872;6.520;2022-10-16T05:20:05;6.20;;;3.40;;
58665;SDS011;44436;52.872;6.520;2022-10-16T05:22:31;9.38;;;3.30;;
58665;SDS011;44436;52.872;6.520;2022-10-16T05:24:57;5.43;;;3.47;;
58665;SDS011;44436;52.872;6.520;2022-10-16T05:27:22;7.75;;;3.42;;
58665;SDS011;44436;52.872;6.520;2022-10-16T05:29:48;5.75;;;3.60;;
58665;SDS011;44436;52.872;6.520;2022-10-16T05:32:14;6.60;;;3.40;;
58665;SDS011;44436;52.872;6.520;2022-10-16T05:34:41;5.75;;;3.05;;
58665;SDS011;44436;52.872;6.520;2022-10-16T05:37:07;7.72;;;3.53;;
58665;SDS011;44436;52.872;6.520;2022-10-16T05:39:33;5.22;;;3.38;;
58665;SDS011;44436;52.872;6.520;2022-10-16T05:41:59;7.57;;;3.53;;
58665;SDS011;44436;52.872;6.520;2022-10-16T05:44:24;6.65;;;4.00;;
58665;SDS011;44436;52.872;6.520;2022-10-16T05:46:50;5.60;;;3.25;;
58665;SDS011;44436;52.872;6.520;2022-10-16T05:49:16;6.22;;;3.55;;
58665;SDS011;44436;52.872;6.520;2022-10-16T05:51:41;7.63;;;3.03;;
58665;SDS011;44436;52.872;6.520;2022-10-16T05:54:08;4.80;;;3.38;;
58665;SDS011;44436;52.872;6.520;2022-10-16T05:56:34;6.13;;;3.35;;
58665;SDS011;44436;52.872;6.520;2022-10-16T05:59:00;4.38;;;2.88;;
58665;SDS011;44436;52.872;6.520;2022-10-16T06:01:25;6.80;;;3.08;;
58665;SDS011;44436;52.872;6.520;2022-10-16T06:03:51;13.63;;;3.63;;
58665;SDS011;44436;52.872;6.520;2022-10-16T06:06:19;6.57;;;3.22;;
58665;SDS011;44436;52.872;6.520;2022-10-16T06:08:47;6.57;;;3.10;;
58665;SDS011;44436;52.872;6.520;2022-10-16T06:11:15;5.90;;;3.70;;
58665;SDS011;44436;52.872;6.520;2022-10-16T06:13:42;5.30;;;2.90;;
58665;SDS011;44436;52.872;6.520;2022-10-16T06:16:08;8.98;;;3.42;;
58665;SDS011;44436;52.872;6.520;2022-10-16T06:18:35;5.43;;;3.30;;
58665;SDS011;44436;52.872;6.520;2022-10-16T06:21:06;7.78;;;3.28;;
58665;SDS011;44436;52.872;6.520;2022-10-16T06:23:33;5.93;;;2.93;;
58665;SDS011;44436;52.872;6.520;2022-10-16T06:26:09;5.93;;;2.80;;
58665;SDS011;44436;52.872;6.520;2022-10-16T06:28:36;3.83;;;2.45;;
58665;SDS011;44436;52.872;6.520;2022-10-16T06:31:03;6.10;;;3.00;;
58665;SDS011;44436;52.872;6.520;2022-10-16T06:33:30;7.70;;;3.17;;
58665;SDS011;44436;52.872;6.520;2022-10-16T06:36:03;6.95;;;2.97;;
58665;SDS011;44436;52.872;6.520;2022-10-16T06:38:30;4.60;;;2.60;;
58665;SDS011;44436;52.872;6.520;2022-10-16T06:40:57;9.02;;;3.08;;
58665;SDS011;44436;52.872;6.520;2022-10-16T06:43:23;4.70;;;2.92;;
58665;SDS011;44436;52.872;6.520;2022-10-16T06:45:52;6.28;;;3.00;;
58665;SDS011;44436;52.872;6.520;2022-10-16T06:48:18;7.55;;;2.50;;
58665;SDS011;44436;52.872;6.520;2022-10-16T06:50:54;4.63;;;2.55;;
58665;SDS011;44436;52.872;6.520;2022-10-16T06:53:40;4.55;;;2.80;;
58665;SDS011;44436;52.872;6.520;2022-10-16T06:56:19;6.88;;;3.00;;
58665;SDS011;44436;52.872;6.520;2022-10-16T06:58:47;4.45;;;2.67;;
58665;SDS011;44436;52.872;6.520;2022-10-16T07:01:14;6.28;;;2.70;;
58665;SDS011;44436;52.872;6.520;2022-10-16T07:03:41;3.58;;;2.22;;
58665;SDS011;44436;52.872;6.520;2022-10-16T07:06:09;6.45;;;2.38;;
58665;SDS011;44436;52.872;6.520;2022-10-16T07:08:37;5.95;;;2.40;;
58665;SDS011;44436;52.872;6.520;2022-10-16T07:11:05;7.43;;;2.83;;
58665;SDS011;44436;52.872;6.520;2022-10-16T07:13:33;5.72;;;2.50;;
58665;SDS011;44436;52.872;6.520;2022-10-16T07:16:09;7.10;;;2.45;;
58665;SDS011;44436;52.872;6.520;2022-10-16T07:18:37;9.07;;;2.45;;
58665;SDS011;44436;52.872;6.520;2022-10-16T07:21:05;11.07;;;3.10;;
58665;SDS011;44436;52.872;6.520;2022-10-16T07:23:36;10.63;;;2.90;;
58665;SDS011;44436;52.872;6.520;2022-10-16T07:26:02;5.93;;;2.50;;
58665;SDS011;44436;52.872;6.520;2022-10-16T07:28:28;6.15;;;2.88;;
58665;SDS011;44436;52.872;6.520;2022-10-16T07:30:54;5.93;;;2.50;;
58665;SDS011;44436;52.872;6.520;2022-10-16T07:33:20;4.70;;;2.30;;
58665;SDS011;44436;52.872;6.520;2022-10-16T07:35:47;4.85;;;2.13;;
58665;SDS011;44436;52.872;6.520;2022-10-16T07:38:14;6.60;;;2.30;;
58665;SDS011;44436;52.872;6.520;2022-10-16T07:40:39;7.10;;;2.10;;
58665;SDS011;44436;52.872;6.520;2022-10-16T07:43:05;4.40;;;2.00;;
58665;SDS011;44436;52.872;6.520;2022-10-16T07:45:31;5.13;;;2.00;;
58665;SDS011;44436;52.872;6.520;2022-10-16T07:47:56;5.63;;;2.33;;
58665;SDS011;44436;52.872;6.520;2022-10-16T07:50:22;7.57;;;2.33;;
58665;SDS011;44436;52.872;6.520;2022-10-16T07:52:47;7.38;;;2.08;;
58665;SDS011;44436;52.872;6.520;2022-10-16T07:55:13;7.72;;;2.10;;
58665;SDS011;44436;52.872;6.520;2022-10-16T07:57:39;9.90;;;2.15;;
58665;SDS011;44436;52.872;6.520;2022-10-16T08:00:05;6.13;;;2.15;;
58665;SDS011;44436;52.872;6.520;2022-10-16T08:02:31;11.00;;;1.90;;
58665;SDS011;44436;52.872;6.520;2022-10-16T08:04:57;6.75;;;1.65;;
58665;SDS011;44436;52.872;6.520;2022-10-16T08:07:22;4.95;;;1.63;;
58665;SDS011;44436;52.872;6.520;2022-10-16T08:09:49;5.15;;;1.30;;
58665;SDS011;44436;52.872;6.520;2022-10-16T08:12:16;4.93;;;1.60;;
58665;SDS011;44436;52.872;6.520;2022-10-16T08:14:42;7.30;;;1.60;;
58665;SDS011;44436;52.872;6.520;2022-10-16T08:17:08;5.15;;;1.23;;
58665;SDS011;44436;52.872;6.520;2022-10-16T08:19:33;4.25;;;1.35;;
58665;SDS011;44436;52.872;6.520;2022-10-16T08:21:59;6.03;;;1.35;;
58665;SDS011;44436;52.872;6.520;2022-10-16T08:24:26;4.13;;;1.10;;
58665;SDS011;44436;52.872;6.520;2022-10-16T08:26:53;6.78;;;1.27;;
58665;SDS011;44436;52.872;6.520;2022-10-16T08:29:19;3.30;;;1.33;;
58665;SDS011;44436;52.872;6.520;2022-10-16T08:31:45;3.75;;;1.10;;
58665;SDS011;44436;52.872;6.520;2022-10-16T08:34:10;4.32;;;1.13;;
58665;SDS011;44436;52.872;6.520;2022-10-16T08:36:36;7.55;;;1.52;;
58665;SDS011;44436;52.872;6.520;2022-10-16T08:39:02;5.47;;;1.20;;
58665;SDS011;44436;52.872;6.520;2022-10-16T08:44:37;6.57;;;1.40;;
58665;SDS011;44436;52.872;6.520;2022-10-16T08:47:25;5.90;;;1.70;;
58665;SDS011;44436;52.872;6.520;2022-10-16T08:50:02;5.13;;;1.75;;
58665;SDS011;44436;52.872;6.520;2022-10-16T08:52:34;3.97;;;1.73;;
58665;SDS011;44436;52.872;6.520;2022-10-16T08:55:04;7.95;;;1.88;;
58665;SDS011;44436;52.872;6.520;2022-10-16T08:57:30;6.63;;;2.03;;
58665;SDS011;44436;52.872;6.520;2022-10-16T09:00:08;7.35;;;1.98;;
58665;SDS011;44436;52.872;6.520;2022-10-16T09:02:38;11.32;;;2.80;;
58665;SDS011;44436;52.872;6.520;2022-10-16T09:05:16;4.88;;;2.13;;
58665;SDS011;44436;52.872;6.520;2022-10-16T09:16:19;9.38;;;2.67;;
58665;SDS011;44436;52.872;6.520;2022-10-16T09:19:04;7.55;;;2.28;;
58665;SDS011;44436;52.872;6.520;2022-10-16T09:21:47;15.30;;;2.97;;
58665;SDS011;44436;52.872;6.520;2022-10-16T09:24:14;10.88;;;2.42;;
58665;SDS011;44436;52.872;6.520;2022-10-16T09:26:43;9.70;;;2.15;;
58665;SDS011;44436;52.872;6.520;2022-10-16T09:29:16;9.73;;;2.00;;
58665;SDS011;44436;52.872;6.520;2022-10-16T09:31:50;7.38;;;2.08;;
58665;SDS011;44436;52.872;6.520;2022-10-16T09:34:20;10.48;;;2.50;;
58665;SDS011;44436;52.872;6.520;2022-10-16T09:36:49;12.07;;;2.60;;
58665;SDS011;44436;52.872;6.520;2022-10-16T09:39:16;12.60;;;2.17;;
58665;SDS011;44436;52.872;6.520;2022-10-16T09:41:42;9.07;;;2.15;;
58665;SDS011;44436;52.872;6.520;2022-10-16T09:44:28;10.05;;;2.38;;
58665;SDS011;44436;52.872;6.520;2022-10-16T09:47:02;11.57;;;2.20;;
58665;SDS011;44436;52.872;6.520;2022-10-16T09:49:29;10.35;;;2.50;;
58665;SDS011;44436;52.872;6.520;2022-10-16T09:52:05;8.30;;;2.10;;
58665;SDS011;44436;52.872;6.520;2022-10-16T09:54:36;8.57;;;2.40;;
58665;SDS011;44436;52.872;6.520;2022-10-16T09:57:05;13.27;;;2.83;;
58665;SDS011;44436;52.872;6.520;2022-10-16T09:59:32;11.43;;;2.40;;
58665;SDS011;44436;52.872;6.520;2022-10-16T10:02:00;13.60;;;2.45;;
58665;SDS011;44436;52.872;6.520;2022-10-16T10:04:36;9.40;;;2.50;;
58665;SDS011;44436;52.872;6.520;2022-10-16T10:07:05;9.65;;;2.40;;
58665;SDS011;44436;52.872;6.520;2022-10-16T10:09:42;8.82;;;2.30;;
58665;SDS011;44436;52.872;6.520;2022-10-16T10:12:17;11.90;;;2.30;;
58665;SDS011;44436;52.872;6.520;2022-10-16T10:14:47;10.93;;;2.47;;
58665;SDS011;44436;52.872;6.520;2022-10-16T10:17:16;11.35;;;2.55;;
58665;SDS011;44436;52.872;6.520;2022-10-16T10:19:54;11.63;;;2.42;;
58665;SDS011;44436;52.872;6.520;2022-10-16T10:22:23;13.65;;;2.60;;
58665;SDS011;44436;52.872;6.520;2022-10-16T10:27:38;11.25;;;1.90;;
58665;SDS011;44436;52.872;6.520;2022-10-16T10:30:18;13.05;;;2.30;;
58665;SDS011;44436;52.872;6.520;2022-10-16T10:35:30;11.07;;;2.30;;
58665;SDS011;44436;52.872;6.520;2022-10-16T10:45:54;11.35;;;2.47;;
58665;SDS011;44436;52.872;6.520;2022-10-16T10:48:43;11.27;;;2.70;;
58665;SDS011;44436;52.872;6.520;2022-10-16T10:51:30;14.20;;;2.67;;
58665;SDS011;44436;52.872;6.520;2022-10-16T10:56:55;14.75;;;2.95;;
58665;SDS011;44436;52.872;6.520;2022-10-16T10:59:43;14.55;;;2.85;;
58665;SDS011;44436;52.872;6.520;2022-10-16T11:08:00;15.50;;;2.78;;
58665;SDS011;44436;52.872;6.520;2022-10-16T11:10:42;11.77;;;2.30;;
58665;SDS011;44436;52.872;6.520;2022-10-16T11:16:48;12.55;;;2.30;;
58665;SDS011;44436;52.872;6.520;2022-10-16T11:21:43;14.00;;;2.20;;
58665;SDS011;44436;52.872;6.520;2022-10-16T11:27:00;12.75;;;2.58;;
58665;SDS011;44436;52.872;6.520;2022-10-16T11:29:32;16.00;;;2.83;;
58665;SDS011;44436;52.872;6.520;2022-10-16T11:32:17;12.60;;;2.78;;
58665;SDS011;44436;52.872;6.520;2022-10-16T11:34:52;17.63;;;2.33;;
58665;SDS011;44436;52.872;6.520;2022-10-16T11:37:36;12.55;;;2.67;;
58665;SDS011;44436;52.872;6.520;2022-10-16T11:40:23;13.05;;;2.70;;
58665;SDS011;44436;52.872;6.520;2022-10-16T11:43:10;12.13;;;2.60;;
58665;SDS011;44436;52.872;6.520;2022-10-16T11:45:54;12.93;;;2.45;;
58665;SDS011;44436;52.872;6.520;2022-10-16T11:51:02;12.10;;;2.20;;
58665;SDS011;44436;52.872;6.520;2022-10-16T11:53:47;12.80;;;2.42;;
58665;SDS011;44436;52.872;6.520;2022-10-16T11:56:26;10.90;;;2.15;;
58665;SDS011;44436;52.872;6.520;2022-10-16T12:07:14;11.68;;;2.72;;
58665;SDS011;44436;52.872;6.520;2022-10-16T12:09:44;11.02;;;2.78;;
58665;SDS011;44436;52.872;6.520;2022-10-16T12:12:23;11.45;;;2.60;;
58665;SDS011;44436;52.872;6.520;2022-10-16T12:15:15;13.25;;;2.78;;
58665;SDS011;44436;52.872;6.520;2022-10-16T12:17:53;15.85;;;2.70;;
58665;SDS011;44436;52.872;6.520;2022-10-16T12:20:21;12.25;;;2.50;;
58665;SDS011;44436;52.872;6.520;2022-10-16T12:22:56;8.98;;;2.25;;
58665;SDS011;44436;52.872;6.520;2022-10-16T12:25:33;13.10;;;2.05;;
58665;SDS011;44436;52.872;6.520;2022-10-16T12:30:35;13.10;;;2.78;;
58665;SDS011;44436;52.872;6.520;2022-10-16T12:33:05;12.80;;;2.55;;
58665;SDS011;44436;52.872;6.520;2022-10-16T12:35:44;10.65;;;2.15;;
58665;SDS011;44436;52.872;6.520;2022-10-16T12:38:18;9.75;;;2.33;;
58665;SDS011;44436;52.872;6.520;2022-10-16T12:43:52;12.90;;;2.67;;
58665;SDS011;44436;52.872;6.520;2022-10-16T12:46:21;13.63;;;2.58;;
58665;SDS011;44436;52.872;6.520;2022-10-16T12:48:48;12.80;;;2.30;;
58665;SDS011;44436;52.872;6.520;2022-10-16T12:51:24;10.93;;;2.28;;
58665;SDS011;44436;52.872;6.520;2022-10-16T12:54:03;11.98;;;2.47;;
58665;SDS011;44436;52.872;6.520;2022-10-16T13:05:50;11.75;;;2.58;;
58665;SDS011;44436;52.872;6.520;2022-10-16T13:11:41;11.07;;;2.60;;
58665;SDS011;44436;52.872;6.520;2022-10-16T13:19:45;11.38;;;2.00;;
58665;SDS011;44436;52.872;6.520;2022-10-16T13:27:45;13.75;;;2.22;;
58665;SDS011;44436;52.872;6.520;2022-10-16T13:30:16;11.85;;;2.38;;
58665;SDS011;44436;52.872;6.520;2022-10-16T13:32:48;12.65;;;2.40;;
58665;SDS011;44436;52.872;6.520;2022-10-16T13:35:20;14.25;;;2.88;;
58665;SDS011;44436;52.872;6.520;2022-10-16T13:37:49;15.32;;;2.83;;
58665;SDS011;44436;52.872;6.520;2022-10-16T13:40:20;12.40;;;2.70;;
58665;SDS011;44436;52.872;6.520;2022-10-16T13:42:48;10.57;;;2.25;;
58665;SDS011;44436;52.872;6.520;2022-10-16T13:45:21;10.07;;;2.38;;
58665;SDS011;44436;52.872;6.520;2022-10-16T13:47:50;14.90;;;2.70;;
58665;SDS011;44436;52.872;6.520;2022-10-16T13:50:29;14.90;;;2.75;;
58665;SDS011;44436;52.872;6.520;2022-10-16T13:53:05;13.02;;;2.25;;
58665;SDS011;44436;52.872;6.520;2022-10-16T13:55:31;9.73;;;2.35;;
58665;SDS011;44436;52.872;6.520;2022-10-16T13:58:13;10.07;;;2.33;;
58665;SDS011;44436;52.872;6.520;2022-10-16T14:00:39;12.95;;;3.17;;
58665;SDS011;44436;52.872;6.520;2022-10-16T14:03:17;16.05;;;3.17;;
58665;SDS011;44436;52.872;6.520;2022-10-16T14:05:52;12.95;;;2.92;;
58665;SDS011;44436;52.872;6.520;2022-10-16T14:08:20;11.82;;;2.40;;
58665;SDS011;44436;52.872;6.520;2022-10-16T14:10:48;9.85;;;2.28;;
58665;SDS011;44436;52.872;6.520;2022-10-16T14:13:32;13.93;;;2.60;;
58665;SDS011;44436;52.872;6.520;2022-10-16T14:16:05;12.82;;;2.33;;
58665;SDS011;44436;52.872;6.520;2022-10-16T14:18:34;8.85;;;2.20;;
58665;SDS011;44436;52.872;6.520;2022-10-16T14:21:12;9.50;;;2.20;;
58665;SDS011;44436;52.872;6.520;2022-10-16T14:23:41;11.38;;;2.40;;
58665;SDS011;44436;52.872;6.520;2022-10-16T14:28:33;15.60;;;2.83;;
58665;SDS011;44436;52.872;6.520;2022-10-16T14:31:01;12.20;;;2.17;;
58665;SDS011;44436;52.872;6.520;2022-10-16T14:38:35;15.85;;;2.50;;
58665;SDS011;44436;52.872;6.520;2022-10-16T14:41:03;11.88;;;2.80;;
58665;SDS011;44436;52.872;6.520;2022-10-16T14:43:36;8.98;;;2.80;;
58665;SDS011;44436;52.872;6.520;2022-10-16T14:46:12;18.85;;;3.65;;
58665;SDS011;44436;52.872;6.520;2022-10-16T14:48:40;14.00;;;3.38;;
58665;SDS011;44436;52.872;6.520;2022-10-16T14:51:08;9.27;;;2.85;;
58665;SDS011;44436;52.872;6.520;2022-10-16T14:53:39;16.85;;;3.80;;
58665;SDS011;44436;52.872;6.520;2022-10-16T14:56:06;16.40;;;3.92;;
58665;SDS011;44436;52.872;6.520;2022-10-16T14:58:33;13.65;;;3.08;;
58665;SDS011;44436;52.872;6.520;2022-10-16T15:01:00;14.50;;;3.00;;
58665;SDS011;44436;52.872;6.520;2022-10-16T15:03:25;12.23;;;3.85;;
58665;SDS011;44436;52.872;6.520;2022-10-16T15:05:51;13.13;;;3.58;;
58665;SDS011;44436;52.872;6.520;2022-10-16T15:08:17;18.13;;;4.93;;
58665;SDS011;44436;52.872;6.520;2022-10-16T15:10:43;14.90;;;3.95;;
58665;SDS011;44436;52.872;6.520;2022-10-16T15:13:15;13.40;;;3.88;;
58665;SDS011;44436;52.872;6.520;2022-10-16T15:15:44;13.05;;;4.13;;
58665;SDS011;44436;52.872;6.520;2022-10-16T15:18:11;13.75;;;4.13;;
58665;SDS011;44436;52.872;6.520;2022-10-16T15:20:39;11.82;;;3.22;;
58665;SDS011;44436;52.872;6.520;2022-10-16T15:23:09;11.07;;;2.80;;
58665;SDS011;44436;52.872;6.520;2022-10-16T15:25:50;11.85;;;2.80;;
58665;SDS011;44436;52.872;6.520;2022-10-16T15:28:20;13.98;;;2.97;;
58665;SDS011;44436;52.872;6.520;2022-10-16T15:30:49;13.35;;;2.85;;
58665;SDS011;44436;52.872;6.520;2022-10-16T15:33:17;11.13;;;2.30;;
58665;SDS011;44436;52.872;6.520;2022-10-16T15:35:48;14.73;;;3.45;;
58665;SDS011;44436;52.872;6.520;2022-10-16T15:38:15;14.43;;;2.65;;
58665;SDS011;44436;52.872;6.520;2022-10-16T15:40:42;11.73;;;2.35;;
58665;SDS011;44436;52.872;6.520;2022-10-16T15:43:08;11.43;;;2.72;;
58665;SDS011;44436;52.872;6.520;2022-10-16T15:45:35;16.42;;;3.28;;
58665;SDS011;44436;52.872;6.520;2022-10-16T15:48:01;10.90;;;3.30;;
58665;SDS011;44436;52.872;6.520;2022-10-16T15:50:27;13.70;;;3.65;;
58665;SDS011;44436;52.872;6.520;2022-10-16T15:52:52;11.82;;;4.38;;
58665;SDS011;44436;52.872;6.520;2022-10-16T15:55:18;15.68;;;4.38;;
58665;SDS011;44436;52.872;6.520;2022-10-16T15:57:44;11.65;;;3.58;;
58665;SDS011;44436;52.872;6.520;2022-10-16T16:00:12;15.52;;;4.32;;
58665;SDS011;44436;52.872;6.520;2022-10-16T16:02:39;15.07;;;4.07;;
58665;SDS011;44436;52.872;6.520;2022-10-16T16:05:06;15.25;;;4.38;;
58665;SDS011;44436;52.872;6.520;2022-10-16T16:07:36;16.55;;;7.47;;
58665;SDS011;44436;52.872;6.520;2022-10-16T16:10:04;14.38;;;6.55;;
58665;SDS011;44436;52.872;6.520;2022-10-16T16:12:32;16.73;;;6.57;;
58665;SDS011;44436;52.872;6.520;2022-10-16T16:14:58;15.73;;;6.22;;
58665;SDS011;44436;52.872;6.520;2022-10-16T16:17:23;15.35;;;6.88;;
58665;SDS011;44436;52.872;6.520;2022-10-16T16:19:49;16.13;;;6.20;;
58665;SDS011;44436;52.872;6.520;2022-10-16T16:22:15;14.85;;;6.38;;
58665;SDS011;44436;52.872;6.520;2022-10-16T16:24:41;14.68;;;6.22;;
58665;SDS011;44436;52.872;6.520;2022-10-16T16:27:07;15.57;;;5.75;;
58665;SDS011;44436;52.872;6.520;2022-10-16T16:29:33;18.33;;;5.72;;
58665;SDS011;44436;52.872;6.520;2022-10-16T16:31:59;10.73;;;5.00;;
58665;SDS011;44436;52.872;6.520;2022-10-16T16:34:28;10.98;;;4.80;;
58665;SDS011;44436;52.872;6.520;2022-10-16T16:36:55;11.10;;;4.68;;
58665;SDS011;44436;52.872;6.520;2022-10-16T16:39:21;9.30;;;3.65;;
58665;SDS011;44436;52.872;6.520;2022-10-16T16:41:47;13.48;;;3.80;;